Time;durP1;ratioP1;P1;durP2;ratioP2;P2;SDS_P1;SDS_P2;PMS_P1;PMS_P2;Temp;Humidity;BMP_temperature;BMP_pressure;BME280_temperature;BME280_humidity;BME280_pressure;Samples;Min_cycle;Max_cycle;Signal;HPM_P1;HPM_P2
2023/09/07 00:00:46;;;;;;;6.03;1.90;;;;;;;16.44;100.00;101025.28;5053207;28;20029;-85
2023/09/07 00:03:13;;;;;;;6.55;1.98;;;;;;;16.49;100.00;101024.66;5053987;28;20079;-86
2023/09/07 00:05:39;;;;;;;7.70;1.90;;;;;;;16.55;100.00;101023.81;5043912;28;20044;-85
2023/09/07 00:08:05;;;;;;;4.82;1.83;;;;;;;16.64;100.00;101019.00;5064934;28;20028;-87
2023/09/07 00:10:35;;;;;;;3.45;1.83;;;;;;;16.73;100.00;101009.59;5055369;28;20029;-86
2023/09/07 00:13:02;;;;;;;5.93;1.90;;;;;;;16.83;100.00;101015.47;5037052;28;20040;-88
2023/09/07 00:15:28;;;;;;;3.42;1.75;;;;;;;16.87;100.00;101005.00;5052905;28;20037;-87
2023/09/07 00:17:54;;;;;;;3.35;1.67;;;;;;;16.86;100.00;100998.75;5036632;28;20459;-87
2023/09/07 00:20:21;;;;;;;5.40;2.13;;;;;;;16.89;100.00;101009.19;5069638;28;20082;-86
2023/09/07 00:22:47;;;;;;;3.15;1.70;;;;;;;16.89;100.00;101005.66;5052885;28;20036;-86
2023/09/07 00:25:13;;;;;;;5.90;2.08;;;;;;;16.89;100.00;101017.34;5053082;28;20029;-86
2023/09/07 00:27:39;;;;;;;6.32;3.03;;;;;;;16.86;100.00;101015.06;5053767;28;20056;-86
2023/09/07 00:30:05;;;;;;;4.90;1.50;;;;;;;16.86;100.00;101014.22;5020111;28;20037;-86
2023/09/07 00:32:36;;;;;;;5.63;1.80;;;;;;;16.80;100.00;101018.59;5069274;28;20476;-86
2023/09/07 00:35:02;;;;;;;4.38;1.80;;;;;;;16.74;100.00;101026.72;5052958;28;20029;-89
2023/09/07 00:37:27;;;;;;;3.55;1.40;;;;;;;16.67;100.00;101008.56;5036229;28;20039;-86
2023/09/07 00:39:53;;;;;;;5.15;1.77;;;;;;;16.64;100.00;101010.84;5052745;28;20029;-86
2023/09/07 00:42:18;;;;;;;3.50;1.95;;;;;;;16.58;100.00;101012.53;5036028;28;20472;-86
2023/09/07 00:44:44;;;;;;;6.07;1.60;;;;;;;16.48;100.00;101001.25;5052609;28;20025;-86
2023/09/07 00:47:09;;;;;;;5.90;1.80;;;;;;;16.40;100.00;100999.56;5053870;28;20078;-86
2023/09/07 00:49:35;;;;;;;4.10;1.83;;;;;;;16.34;100.00;101000.41;5052432;28;20032;-87
2023/09/07 00:52:01;;;;;;;3.67;1.70;;;;;;;16.25;100.00;101007.09;5019703;28;20040;-86
2023/09/07 00:54:28;;;;;;;4.30;1.83;;;;;;;16.10;100.00;101004.56;5035981;28;20380;-86
2023/09/07 00:56:54;;;;;;;6.32;1.58;;;;;;;16.00;100.00;101006.84;5068655;28;20044;-86
2023/09/07 00:59:20;;;;;;;6.60;1.88;;;;;;;15.88;100.00;101005.75;5035696;28;20029;-86
2023/09/07 01:01:45;;;;;;;6.82;2.10;;;;;;;15.83;100.00;101004.50;5052296;28;20031;-86
2023/09/07 01:04:11;;;;;;;4.13;1.83;;;;;;;15.78;100.00;101004.28;5036024;28;20044;-86
2023/09/07 01:06:45;;;;;;;5.75;1.80;;;;;;;15.70;100.00;100999.06;5053107;28;20029;-86
2023/09/07 01:09:15;;;;;;;5.53;2.47;;;;;;;15.63;100.00;100998.16;5035997;28;20064;-87
2023/09/07 01:11:40;;;;;;;2.78;1.65;;;;;;;15.57;100.00;100990.84;5035945;28;20044;-86
2023/09/07 01:14:06;;;;;;;5.97;3.25;;;;;;;15.49;100.00;100993.72;5053561;28;20029;-87
2023/09/07 01:16:35;;;;;;;7.22;2.00;;;;;;;15.45;100.00;100997.88;5052296;28;20040;-86
2023/09/07 01:19:01;;;;;;;6.32;1.77;;;;;;;15.37;100.00;101007.88;5069433;28;20467;-87
2023/09/07 01:21:32;;;;;;;5.30;2.22;;;;;;;15.35;100.00;101003.69;5052619;28;20036;-85
2023/09/07 01:23:58;;;;;;;4.70;2.17;;;;;;;15.32;100.00;100996.78;5020148;28;20037;-86
2023/09/07 01:26:23;;;;;;;6.95;2.13;;;;;;;15.41;100.00;101004.75;5056926;28;20131;-86
2023/09/07 01:28:49;;;;;;;5.93;2.15;;;;;;;15.55;100.00;100995.63;5056281;28;20043;-85
2023/09/07 01:31:15;;;;;;;4.72;2.25;;;;;;;15.70;100.00;100993.63;5057349;28;20039;-88
2023/09/07 01:33:41;;;;;;;3.22;2.00;;;;;;;15.88;100.00;100982.22;5056226;28;20063;-85
2023/09/07 01:36:06;;;;;;;4.70;1.90;;;;;;;15.98;100.00;100987.22;5057349;28;20112;-86
2023/09/07 01:38:32;;;;;;;5.80;1.90;;;;;;;16.14;100.00;100992.28;5056099;28;20087;-86
2023/09/07 01:40:58;;;;;;;3.03;1.70;;;;;;;16.15;100.00;100985.78;5056111;28;20025;-86
2023/09/07 01:43:23;;;;;;;3.72;1.85;;;;;;;16.24;100.00;100994.56;5056167;28;20086;-86
2023/09/07 01:45:49;;;;;;;3.60;2.17;;;;;;;16.24;100.00;100997.28;5056174;28;20029;-86
2023/09/07 01:48:15;;;;;;;4.63;2.17;;;;;;;16.24;100.00;100995.38;5056784;28;20028;-88
2023/09/07 01:50:40;;;;;;;3.78;1.95;;;;;;;16.14;100.00;100992.28;5055702;28;20033;-86
2023/09/07 01:53:06;;;;;;;3.78;1.70;;;;;;;16.00;100.00;101004.13;5055160;28;20391;-87
2023/09/07 01:55:32;;;;;;;4.45;1.80;;;;;;;15.87;100.00;100993.25;5072413;28;20033;-86
2023/09/07 01:57:58;;;;;;;3.88;2.00;;;;;;;15.65;100.00;100979.81;5022845;28;20051;-87
2023/09/07 02:00:23;;;;;;;5.55;1.95;;;;;;;15.49;100.00;100981.00;5055668;28;20036;-86
2023/09/07 02:02:49;;;;;;;6.85;2.10;;;;;;;15.30;100.00;100982.59;5039038;28;20029;-87
2023/09/07 02:05:15;;;;;;;4.82;2.25;;;;;;;15.11;100.00;100967.06;5055390;28;20041;-86
2023/09/07 02:07:41;;;;;;;7.65;2.17;;;;;;;14.99;100.00;100957.84;5055566;28;20033;-86
2023/09/07 02:10:07;;;;;;;8.77;2.30;;;;;;;14.87;100.00;100947.59;5056532;28;20032;-86
2023/09/07 02:12:33;;;;;;;8.63;2.70;;;;;;;14.87;100.00;100947.59;5055541;28;20036;-86
2023/09/07 02:15:02;;;;;;;8.55;2.60;;;;;;;14.95;100.00;100947.44;5038983;28;20033;-89
2023/09/07 02:17:30;;;;;;;6.97;2.42;;;;;;;15.02;100.00;100950.16;5071791;28;20520;-86
2023/09/07 02:19:55;;;;;;;5.55;2.60;;;;;;;15.04;100.00;100948.09;5038675;28;20112;-89
2023/09/07 02:22:21;;;;;;;8.23;2.78;;;;;;;15.07;100.00;100958.53;5037775;28;20072;-89
2023/09/07 02:24:46;;;;;;;6.68;2.40;;;;;;;15.02;100.00;100965.59;5054062;28;20112;-86
2023/09/07 02:27:12;;;;;;;7.43;3.67;;;;;;;15.00;100.00;100967.66;5054924;28;20036;-88
2023/09/07 02:29:38;;;;;;;5.97;2.70;;;;;;;14.93;100.00;100964.91;5054511;28;20126;-86
2023/09/07 02:32:03;;;;;;;3.35;2.35;;;;;;;14.89;100.00;100972.56;5062748;28;20057;-85
2023/09/07 02:34:30;;;;;;;5.43;2.50;;;;;;;14.82;100.00;100979.84;5064366;28;20033;-85
2023/09/07 02:36:56;;;;;;;6.93;2.60;;;;;;;14.68;100.00;100975.34;5053289;28;20072;-85
2023/09/07 02:39:26;;;;;;;9.35;2.45;;;;;;;14.62;100.00;100968.88;5053880;28;20103;-86
2023/09/07 02:41:52;;;;;;;6.47;3.03;;;;;;;14.52;100.00;100960.22;5053476;28;20094;-85
2023/09/07 02:44:18;;;;;;;6.40;2.70;;;;;;;14.49;100.00;100961.44;5036773;28;20526;-86
2023/09/07 02:46:43;;;;;;;5.30;2.85;;;;;;;14.35;100.00;100962.41;5053229;28;20051;-86
2023/09/07 02:49:09;;;;;;;6.85;2.47;;;;;;;14.28;100.00;100970.44;5054409;28;20468;-87
2023/09/07 02:51:35;;;;;;;6.05;3.03;;;;;;;14.33;100.00;100977.16;5053489;28;20032;-87
2023/09/07 02:54:01;;;;;;;8.20;3.15;;;;;;;14.36;100.00;100974.88;5054875;28;20033;-85
2023/09/07 02:56:27;;;;;;;8.57;3.53;;;;;;;14.35;100.00;100977.78;5053854;28;20036;-86
2023/09/07 02:58:52;;;;;;;6.47;3.08;;;;;;;14.37;100.00;100987.38;5070283;28;20040;-85
2023/09/07 03:01:19;;;;;;;8.02;3.42;;;;;;;14.35;100.00;100984.03;5054322;28;20044;-85
2023/09/07 03:03:45;;;;;;;4.97;3.28;;;;;;;14.27;100.00;100986.88;5036680;28;20471;-85
2023/09/07 03:06:13;;;;;;;8.57;3.58;;;;;;;14.27;100.00;100986.88;5070494;28;20483;-85
2023/09/07 03:08:42;;;;;;;10.75;3.95;;;;;;;14.28;100.00;100983.97;5020531;28;20124;-85
2023/09/07 03:11:08;;;;;;;7.28;3.33;;;;;;;14.25;100.00;100983.53;5053256;28;20029;-85
2023/09/07 03:13:34;;;;;;;8.02;3.97;;;;;;;14.24;100.00;100985.41;5053339;28;20048;-85
2023/09/07 03:16:02;;;;;;;7.63;4.05;;;;;;;14.16;100.00;100985.53;5036567;28;20032;-84
2023/09/07 03:18:28;;;;;;;8.75;4.00;;;;;;;14.11;100.00;100977.16;5020353;28;20033;-86
2023/09/07 03:20:56;;;;;;;8.80;4.05;;;;;;;14.04;100.00;100977.09;5011786;28;1194129;-87
2023/09/07 03:23:22;;;;;;;4.53;3.00;;;;;;;13.93;100.00;100974.06;5021584;28;20044;-86
2023/09/07 03:25:48;;;;;;;7.78;3.38;;;;;;;13.82;100.00;100975.41;5021334;28;20044;-87
2023/09/07 03:28:14;;;;;;;7.88;3.13;;;;;;;13.75;100.00;100982.59;5020861;28;20384;-84
2023/09/07 03:30:39;;;;;;;10.45;4.60;;;;;;;13.71;100.00;100965.13;5053645;28;20029;-84
2023/09/07 03:33:05;;;;;;;10.68;4.53;;;;;;;13.71;100.00;100967.81;5053645;28;20464;-86
2023/09/07 03:35:31;;;;;;;7.93;3.90;;;;;;;13.65;100.00;100964.00;5053763;28;20493;-84
2023/09/07 03:37:57;;;;;;;8.25;3.30;;;;;;;13.53;100.00;100960.97;5020940;28;20037;-84
2023/09/07 03:40:23;;;;;;;9.70;3.75;;;;;;;13.43;100.00;100952.31;5053458;28;20039;-86
2023/09/07 03:42:49;;;;;;;6.95;3.67;;;;;;;13.39;100.00;100959.16;5053837;28;20075;-86
2023/09/07 03:45:15;;;;;;;10.35;3.92;;;;;;;13.34;100.00;100948.91;5054943;28;20029;-88
2023/09/07 03:47:40;;;;;;;8.55;4.88;;;;;;;13.40;100.00;100958.09;5052278;28;20098;-86
2023/09/07 03:50:06;;;;;;;9.35;4.63;;;;;;;13.37;100.00;100958.50;5053471;28;20036;-86
2023/09/07 03:52:32;;;;;;;8.68;4.72;;;;;;;13.40;100.00;100958.09;5053347;28;20025;-85
2023/09/07 03:54:58;;;;;;;12.05;4.90;;;;;;;13.38;100.00;100950.19;5054797;28;20044;-86
2023/09/07 03:57:25;;;;;;;11.23;4.85;;;;;;;13.33;100.00;100952.63;5053210;28;20033;-86
2023/09/07 03:59:50;;;;;;;12.80;5.15;;;;;;;13.52;100.00;100951.19;5036832;28;20483;-85
2023/09/07 04:02:17;;;;;;;12.60;5.10;;;;;;;13.60;100.00;100953.78;5053398;28;20024;-86
2023/09/07 04:04:49;;;;;;;15.23;5.38;;;;;;;13.72;100.00;100947.88;5053111;28;20052;-87
2023/09/07 04:07:14;;;;;;;12.88;6.13;;;;;;;13.69;100.00;100940.97;5036892;28;20045;-86
2023/09/07 04:09:40;;;;;;;14.70;6.22;;;;;;;13.81;100.00;100961.06;5036778;28;20052;-86
2023/09/07 04:12:06;;;;;;;13.60;6.35;;;;;;;13.82;100.00;100956.50;5053552;28;20037;-85
2023/09/07 04:14:32;;;;;;;15.57;6.38;;;;;;;13.84;100.00;100960.69;5036967;28;20044;-87
2023/09/07 04:16:58;;;;;;;17.50;6.72;;;;;;;13.87;100.00;100964.03;5036269;28;20033;-86
2023/09/07 04:19:24;;;;;;;16.67;6.88;;;;;;;13.90;100.00;100959.06;5054104;28;20460;-87
2023/09/07 04:21:50;;;;;;;12.77;6.05;;;;;;;13.91;100.00;100949.09;5053018;28;20033;-87
2023/09/07 04:24:15;;;;;;;16.52;6.70;;;;;;;13.90;100.00;100950.97;5054237;28;20051;-86
2023/09/07 04:26:41;;;;;;;14.50;6.13;;;;;;;13.81;100.00;100949.41;5054105;28;20040;-86
2023/09/07 04:29:07;;;;;;;12.57;5.95;;;;;;;13.86;100.00;100952.38;5053805;28;20025;-86
2023/09/07 04:31:33;;;;;;;9.60;5.70;;;;;;;13.91;100.00;100949.94;5052990;28;20052;-87
2023/09/07 04:33:58;;;;;;;12.48;5.57;;;;;;;13.82;100.00;100948.41;5053065;28;20029;-86
2023/09/07 04:36:24;;;;;;;11.05;5.35;;;;;;;13.72;100.00;100953.28;5052550;28;20403;-85
2023/09/07 04:38:57;;;;;;;8.73;4.00;;;;;;;13.60;100.00;100944.81;5069314;28;20456;-87
2023/09/07 04:41:43;;;;;;;7.40;4.35;;;;;;;13.41;100.00;100933.59;4998079;28;20400;-85
2023/09/07 04:44:09;;;;;;;9.05;4.18;;;;;;;13.38;100.00;100943.94;5031970;28;20120;-87
2023/09/07 04:46:35;;;;;;;8.45;6.25;;;;;;;13.40;100.00;100936.50;5052518;28;20460;-86
2023/09/07 04:49:00;;;;;;;11.77;4.82;;;;;;;13.39;100.00;100930.28;5052644;28;20036;-85
2023/09/07 04:51:26;;;;;;;12.60;5.63;;;;;;;13.58;100.00;100934.22;5053250;28;20498;-86
2023/09/07 04:53:52;;;;;;;12.55;5.85;;;;;;;13.76;100.00;100938.34;5053139;28;20061;-85
2023/09/07 04:56:17;;;;;;;19.30;6.97;;;;;;;13.93;100.00;100950.56;5057242;28;20025;-85
2023/09/07 04:58:43;;;;;;;14.38;6.88;;;;;;;14.10;100.00;100940.31;5055427;28;20033;-86
2023/09/07 05:01:10;;;;;;;17.77;7.00;;;;;;;14.25;100.00;100940.25;5053550;28;20033;-86
2023/09/07 05:03:36;;;;;;;14.85;7.03;;;;;;;14.36;100.00;100950.53;5053701;28;20036;-87
2023/09/07 05:06:03;;;;;;;20.02;8.30;;;;;;;14.54;100.00;100943.84;5035494;28;20029;-87
2023/09/07 05:08:29;;;;;;;20.67;7.00;;;;;;;14.65;100.00;100948.69;5068494;28;20073;-86
2023/09/07 05:10:57;;;;;;;11.80;4.97;;;;;;;14.70;100.00;100949.78;5052343;28;20032;-86
2023/09/07 05:13:23;;;;;;;16.23;5.05;;;;;;;14.69;100.00;100955.41;5035951;28;20468;-86
2023/09/07 05:15:50;;;;;;;9.57;4.53;;;;;;;14.72;100.00;100953.13;5035819;28;20025;-85
2023/09/07 05:18:16;;;;;;;8.60;4.20;;;;;;;14.66;100.00;100955.78;5035628;28;20033;-86
2023/09/07 05:20:42;;;;;;;11.85;4.63;;;;;;;14.68;100.00;100953.72;5019190;28;20041;-86
2023/09/07 05:23:07;;;;;;;11.23;5.50;;;;;;;14.77;100.00;100949.00;5053141;28;20074;-86
2023/09/07 05:25:33;;;;;;;12.85;4.43;;;;;;;14.87;100.00;100947.59;5052199;28;20029;-86
2023/09/07 05:27:58;;;;;;;8.15;4.32;;;;;;;14.86;100.00;100942.38;5051895;28;20108;-86
2023/09/07 05:30:24;;;;;;;12.65;4.53;;;;;;;14.76;100.00;100945.44;5052241;28;20037;-90
2023/09/07 05:32:49;;;;;;;11.45;4.22;;;;;;;14.74;100.00;100939.41;5053261;28;20033;-87
2023/09/07 05:35:16;;;;;;;11.48;4.28;;;;;;;14.72;100.00;100946.88;5052398;28;20090;-88
2023/09/07 05:37:42;;;;;;;10.07;4.30;;;;;;;14.74;100.00;100950.22;5068544;28;20031;-86
2023/09/07 05:40:08;;;;;;;9.48;4.45;;;;;;;14.87;100.00;100934.06;5053312;28;20099;-89
2023/09/07 05:42:34;;;;;;;8.70;4.40;;;;;;;14.99;100.00;100947.84;5051788;28;20029;-86
2023/09/07 05:44:59;;;;;;;12.07;4.38;;;;;;;15.13;100.00;100937.91;5068777;28;20047;-86
2023/09/07 05:47:26;;;;;;;14.35;4.43;;;;;;;15.14;100.00;100937.72;5052035;28;20032;-85
2023/09/07 05:49:52;;;;;;;11.35;4.38;;;;;;;15.12;100.00;100939.81;5051962;28;20459;-86
2023/09/07 05:52:17;;;;;;;9.85;4.30;;;;;;;15.13;100.00;100937.91;5051843;28;20033;-88
2023/09/07 05:54:43;;;;;;;10.27;3.63;;;;;;;15.21;100.00;100939.63;5051649;28;20047;-86
2023/09/07 05:57:09;;;;;;;6.00;3.70;;;;;;;15.30;100.00;100939.25;5052675;28;20487;-86
2023/09/07 05:59:34;;;;;;;12.13;3.53;;;;;;;15.34;100.00;100934.25;5052701;28;20086;-85
2023/09/07 06:02:00;;;;;;;13.02;4.05;;;;;;;15.47;100.00;100938.91;5051837;28;20033;-86
2023/09/07 06:07:31;;;;;;;16.33;3.50;;;;;;;15.93;100.00;100951.75;5037537;28;20458;-87
2023/09/07 06:09:59;;;;;;;10.35;3.80;;;;;;;15.95;100.00;100946.94;5053161;28;20048;-88
2023/09/07 06:15:29;;;;;;;8.77;3.47;;;;;;;16.05;100.00;100942.78;5055587;28;20033;-87
2023/09/07 06:17:55;;;;;;;8.35;3.92;;;;;;;16.10;100.00;100939.47;5039454;28;20051;-87
2023/09/07 06:20:20;;;;;;;9.57;3.58;;;;;;;16.21;100.00;100941.53;5054926;28;20532;-86
2023/09/07 06:22:46;;;;;;;11.68;3.75;;;;;;;16.27;100.00;100935.31;5055748;28;20086;-87
2023/09/07 06:25:12;;;;;;;13.82;3.60;;;;;;;16.21;100.00;100946.97;5073002;28;20036;-86
2023/09/07 06:27:40;;;;;;;9.27;3.50;;;;;;;16.26;100.00;100952.63;5065222;28;20024;-86
2023/09/07 06:30:07;;;;;;;9.40;3.67;;;;;;;16.29;100.00;100958.66;5091178;28;20025;-86
2023/09/07 06:32:32;;;;;;;10.15;3.40;;;;;;;16.29;100.00;100962.22;5040376;28;20044;-87
2023/09/07 06:34:58;;;;;;;10.43;3.60;;;;;;;16.29;100.00;100955.97;5058882;28;20025;-87
2023/09/07 06:37:24;;;;;;;7.97;3.78;;;;;;;16.26;100.00;100963.47;5039018;28;20531;-88
2023/09/07 06:39:51;;;;;;;11.15;3.70;;;;;;;16.22;100.00;100964.94;5056353;28;20043;-87
2023/09/07 06:42:17;;;;;;;8.00;3.63;;;;;;;16.18;100.00;100958.25;5055118;28;20043;-86
2023/09/07 06:44:42;;;;;;;6.35;3.13;;;;;;;16.15;100.00;100952.41;5054952;28;20029;-87
2023/09/07 06:47:08;;;;;;;10.20;3.88;;;;;;;16.16;100.00;100954.91;5038943;28;20067;-87
2023/09/07 06:49:34;;;;;;;9.75;3.38;;;;;;;16.15;100.00;100961.38;5056290;28;20044;-87
2023/09/07 06:52:00;;;;;;;6.10;3.92;;;;;;;16.17;100.00;100953.88;5055974;28;20040;-87
2023/09/07 06:54:28;;;;;;;8.07;3.00;;;;;;;16.25;100.00;100948.25;5055851;28;20029;-88
2023/09/07 06:56:53;;;;;;;6.57;3.08;;;;;;;16.33;100.00;100962.66;5056140;28;20043;-87
2023/09/07 06:59:19;;;;;;;8.90;3.30;;;;;;;16.37;100.00;100953.84;5055602;28;20029;-87
2023/09/07 07:01:44;;;;;;;9.57;3.78;;;;;;;16.48;100.00;100950.53;5057241;28;20033;-88
2023/09/07 07:04:10;;;;;;;6.95;3.40;;;;;;;16.59;100.00;100953.63;5055406;28;20368;-86
2023/09/07 07:06:36;;;;;;;4.30;2.95;;;;;;;16.68;100.00;100942.34;5054461;28;20025;-87
2023/09/07 07:09:01;;;;;;;7.80;3.42;;;;;;;16.80;100.00;100942.56;5055109;28;20387;-90
2023/09/07 07:11:27;;;;;;;3.63;2.80;;;;;;;16.89;100.00;100937.75;5056208;28;20547;-87
2023/09/07 07:13:52;;;;;;;5.43;2.92;;;;;;;17.04;100.00;100938.34;5054736;28;20115;-87
2023/09/07 07:16:18;;;;;;;6.53;3.13;;;;;;;17.20;100.00;100934.31;5056007;28;20383;-86
2023/09/07 07:18:44;;;;;;;5.55;2.90;;;;;;;17.35;100.00;100934.84;5072399;28;20031;-86
2023/09/07 07:21:09;;;;;;;7.35;3.22;;;;;;;17.49;100.00;100932.91;5058056;28;20039;-86
2023/09/07 07:23:36;;;;;;;7.65;2.97;;;;;;;17.68;100.00;100943.91;5064751;28;20028;-87
2023/09/07 07:26:02;;;;;;;9.00;3.33;;;;;;;18.29;100.00;100939.72;5043401;28;20025;-87
2023/09/07 07:28:28;;;;;;;5.97;2.58;;;;;;;18.88;100.00;100949.22;5054556;28;20028;-87
2023/09/07 07:30:53;;;;;;;4.93;2.67;;;;;;;19.23;100.00;100959.53;5073755;28;20521;-91
2023/09/07 07:33:19;;;;;;;9.38;2.90;;;;;;;19.07;100.00;100950.91;5042147;28;20041;-86
2023/09/07 07:35:45;;;;;;;7.65;2.63;;;;;;;19.33;100.00;100949.75;5058960;28;20037;-90
2023/09/07 07:38:13;;;;;;;6.10;2.80;;;;;;;19.36;100.00;100943.00;5060572;28;20028;-91
2023/09/07 07:40:39;;;;;;;5.15;2.50;;;;;;;20.06;100.00;100938.88;5060629;28;20029;-89
2023/09/07 07:43:06;;;;;;;6.93;2.70;;;;;;;20.24;100.00;100946.16;5060960;28;20091;-86
2023/09/07 07:45:36;;;;;;;9.07;2.80;;;;;;;20.78;100.00;100949.66;5042283;28;20040;-86
2023/09/07 07:48:02;;;;;;;7.28;2.30;;;;;;;21.30;100.00;100949.66;5061537;28;20029;-89
2023/09/07 07:50:27;;;;;;;7.90;2.70;;;;;;;21.70;100.00;100951.59;5076531;28;20020;-88
2023/09/07 07:52:53;;;;;;;7.32;2.60;;;;;;;22.04;100.00;100952.44;5059242;28;20430;-88
2023/09/07 07:55:19;;;;;;;6.43;3.22;;;;;;;22.35;100.00;100948.34;5061003;28;20529;-86
2023/09/07 07:57:44;;;;;;;7.47;2.80;;;;;;;22.54;100.00;100948.09;5044458;28;20036;-92
2023/09/07 08:00:10;;;;;;;8.93;2.90;;;;;;;22.71;100.00;100951.66;5064148;28;20029;-90
2023/09/07 08:02:39;;;;;;;7.55;2.45;;;;;;;23.03;100.00;100956.50;5061273;28;20360;-92
2023/09/07 08:05:05;;;;;;;7.10;2.53;;;;;;;23.33;100.00;100953.31;5026368;28;20569;-87
2023/09/07 08:07:34;;;;;;;6.20;2.42;;;;;;;23.62;100.00;100973.13;5043714;28;20048;-92
2023/09/07 08:10:04;;;;;;;;;;;;;;;23.83;100.00;100967.91;5045643;28;20036;-92
2023/09/07 08:12:29;;;;;;;8.50;2.30;;;;;;;24.01;100.00;100962.03;5078037;28;19912;-90
2023/09/07 08:14:55;;;;;;;7.32;2.55;;;;;;;24.17;100.00;100953.94;5062193;28;20036;-89
2023/09/07 08:17:21;;;;;;;6.78;2.75;;;;;;;24.30;100.00;100959.00;5042576;28;20031;-87
2023/09/07 08:19:48;;;;;;;10.00;2.58;;;;;;;24.46;100.00;100952.53;5058192;28;20383;-89
2023/09/07 08:22:14;;;;;;;8.23;2.78;;;;;;;24.65;100.00;100957.63;5058352;28;20036;-88
2023/09/07 08:24:42;;;;;;;8.13;2.60;;;;;;;24.90;100.00;100959.69;5056597;28;20025;-88
2023/09/07 08:27:18;;;;;;;7.40;2.90;;;;;;;25.18;100.00;100953.00;5041302;28;20024;-87
2023/09/07 08:29:47;;;;;;;;;;;;;;;25.65;100.00;100960.31;5056049;28;20028;-88
2023/09/07 08:32:14;;;;;;;8.55;2.80;;;;;;;25.93;95.13;100959.00;5075036;28;19913;-87
2023/09/07 08:34:41;;;;;;;11.82;3.13;;;;;;;26.20;84.24;100958.75;5059611;28;20067;-89
2023/09/07 08:37:08;;;;;;;9.05;2.50;;;;;;;26.39;79.90;100958.19;5046987;28;20483;-90
2023/09/07 08:39:35;;;;;;;9.45;2.85;;;;;;;26.73;75.48;100967.56;5059572;28;20094;-88
2023/09/07 08:42:00;;;;;;;6.05;2.47;;;;;;;26.24;75.61;100965.34;5028756;28;20056;-88
2023/09/07 08:44:26;;;;;;;8.75;3.13;;;;;;;24.68;85.57;100957.91;5056101;28;20029;-87
2023/09/07 08:46:55;;;;;;;10.95;2.97;;;;;;;23.70;92.34;100960.88;5072074;28;20051;-88
2023/09/07 08:49:23;;;;;;;8.52;2.92;;;;;;;23.56;95.61;100967.84;5023065;28;20029;-91
2023/09/07 08:51:49;;;;;;;6.78;2.50;;;;;;;23.78;95.44;100968.66;5071978;28;20039;-87
2023/09/07 08:54:16;;;;;;;8.85;3.25;;;;;;;23.58;98.88;100966.50;5039553;28;20033;-87
2023/09/07 08:56:46;;;;;;;10.48;4.18;;;;;;;23.91;98.38;100978.41;5056647;28;20131;-87
2023/09/07 08:59:13;;;;;;;16.20;4.43;;;;;;;24.71;92.41;100970.31;5039719;28;20129;-88
2023/09/07 09:01:39;;;;;;;17.85;4.13;;;;;;;26.68;79.50;100967.56;5060503;28;20080;-88
2023/09/07 09:04:06;;;;;;;15.75;4.22;;;;;;;27.09;75.27;100970.19;5056948;28;20422;-86
2023/09/07 09:06:31;;;;;;;11.00;3.95;;;;;;;27.55;74.71;100966.47;5022307;28;20033;-87
2023/09/07 09:08:57;;;;;;;17.65;4.18;;;;;;;27.57;71.28;100967.84;5056251;28;20097;-87
2023/09/07 09:11:24;;;;;;;18.30;3.97;;;;;;;27.81;72.00;100973.53;5057666;28;20468;-90
2023/09/07 09:13:52;;;;;;;15.38;4.20;;;;;;;27.80;70.15;100977.38;5054659;28;20041;-89
2023/09/07 09:16:18;;;;;;;13.45;4.07;;;;;;;27.90;68.81;100976.50;5036229;28;20383;-88
2023/09/07 09:18:55;;;;;;;16.48;4.43;;;;;;;28.08;67.37;100971.38;5053166;28;20066;-87
2023/09/07 09:21:25;;;;;;;15.15;4.60;;;;;;;28.17;67.09;100964.13;5021178;28;20069;-88
2023/09/07 09:23:57;;;;;;;20.55;4.63;;;;;;;28.05;67.42;100956.19;5020614;28;20044;-88
2023/09/07 09:26:23;;;;;;;18.73;4.65;;;;;;;27.87;67.46;100960.50;5037057;28;20040;-88
2023/09/07 09:28:52;;;;;;;15.02;4.10;;;;;;;27.62;70.98;100953.97;5062572;28;20033;-87
2023/09/07 09:31:18;;;;;;;16.38;4.20;;;;;;;27.37;71.93;100954.94;5055235;28;20048;-88
2023/09/07 09:33:48;;;;;;;19.40;4.47;;;;;;;27.26;71.73;100949.78;5037518;28;20463;-88
2023/09/07 09:36:14;;;;;;;15.55;4.28;;;;;;;27.41;71.18;100955.19;5055212;28;20472;-88
2023/09/07 09:38:39;;;;;;;16.60;4.53;;;;;;;27.58;72.50;100952.09;5055756;28;20109;-87
2023/09/07 09:41:05;;;;;;;14.35;4.20;;;;;;;27.75;71.70;100955.28;5054675;28;20064;-88
2023/09/07 09:43:31;;;;;;;17.52;5.50;;;;;;;27.86;71.44;100964.34;5040942;28;20128;-88
2023/09/07 09:45:58;;;;;;;13.98;4.22;;;;;;;27.80;71.22;100958.03;5041095;28;20032;-88
2023/09/07 09:48:24;;;;;;;16.40;4.63;;;;;;;28.04;70.05;100962.84;5047341;28;20029;-88
2023/09/07 09:50:50;;;;;;;11.75;3.55;;;;;;;27.99;70.30;100976.69;5074147;28;20072;-87
2023/09/07 09:53:20;;;;;;;15.20;4.25;;;;;;;27.71;69.86;100967.22;5062090;28;20035;-88
2023/09/07 09:55:52;;;;;;;15.20;4.55;;;;;;;27.36;72.95;100966.25;5062408;28;20036;-90
2023/09/07 09:58:18;;;;;;;16.48;4.78;;;;;;;27.31;72.68;100964.38;5048822;28;20041;-88
2023/09/07 10:00:45;;;;;;;14.55;4.28;;;;;;;27.34;72.60;100965.75;5063965;28;20035;-88
2023/09/07 10:03:20;;;;;;;23.30;4.85;;;;;;;27.37;70.78;100974.28;5062270;28;20025;-89
2023/09/07 10:05:52;;;;;;;16.17;4.20;;;;;;;27.24;73.99;100974.06;5046413;28;20066;-89
2023/09/07 10:08:19;;;;;;;15.30;4.47;;;;;;;27.03;74.59;100976.03;5038912;28;20043;-86
2023/09/07 10:10:53;;;;;;;16.75;4.35;;;;;;;26.47;75.42;100976.94;5055845;28;20039;-87
2023/09/07 10:13:30;;;;;;;20.52;4.60;;;;;;;26.09;77.87;100968.97;5039433;28;20029;-88
2023/09/07 10:16:09;;;;;;;17.55;4.30;;;;;;;26.04;79.00;100966.19;5073976;28;20094;-90
2023/09/07 10:18:39;;;;;;;17.77;4.30;;;;;;;26.16;83.42;100976.13;5041671;28;20131;-90
2023/09/07 10:21:04;;;;;;;17.92;4.28;;;;;;;26.05;81.71;100964.25;5040383;28;20136;-90
2023/09/07 10:23:44;;;;;;;16.35;4.47;;;;;;;26.08;81.28;100963.72;5056709;28;20081;-90
2023/09/07 10:26:15;;;;;;;19.95;3.95;;;;;;;26.22;81.04;100964.81;5057188;28;20056;-90
2023/09/07 10:28:41;;;;;;;15.80;4.13;;;;;;;26.40;78.69;100962.59;5037605;28;20024;-88
2023/09/07 10:31:14;;;;;;;20.20;4.32;;;;;;;26.46;77.54;100964.25;5054436;28;20147;-90
2023/09/07 10:33:40;;;;;;;18.30;4.55;;;;;;;26.73;77.14;100967.56;5037729;28;20055;-89
2023/09/07 10:36:06;;;;;;;14.90;3.95;;;;;;;26.87;76.04;100967.78;5053994;28;20108;-90
2023/09/07 10:38:35;;;;;;;16.70;4.30;;;;;;;27.19;76.94;100972.13;5053580;28;20048;-87
2023/09/07 10:41:02;;;;;;;13.02;3.63;;;;;;;27.56;74.69;100966.16;5053408;28;20090;-87
2023/09/07 10:43:33;;;;;;;12.98;3.78;;;;;;;27.68;74.67;100968.59;5055164;28;20044;-88
2023/09/07 10:46:00;;;;;;;14.77;3.83;;;;;;;27.49;76.27;100970.34;5022127;28;20040;-88
2023/09/07 10:48:28;;;;;;;14.88;3.95;;;;;;;27.30;78.67;100967.41;5054677;28;20025;-90
2023/09/07 10:50:54;;;;;;;15.73;4.50;;;;;;;27.20;78.71;100971.03;5055373;28;20455;-88
2023/09/07 10:53:31;;;;;;;15.75;4.43;;;;;;;26.86;80.82;100959.78;5054585;28;20052;-87
2023/09/07 10:55:58;;;;;;;15.70;4.30;;;;;;;26.62;83.49;100957.66;5021895;28;20064;-87
2023/09/07 10:58:26;;;;;;;14.13;4.45;;;;;;;26.62;84.70;100949.38;5037557;28;20047;-86
2023/09/07 11:00:56;;;;;;;15.15;4.22;;;;;;;26.78;83.40;100944.66;5053391;28;20037;-88
2023/09/07 11:03:22;;;;;;;14.63;4.35;;;;;;;26.95;83.90;100941.56;5053408;28;20033;-90
2023/09/07 11:05:48;;;;;;;13.02;4.28;;;;;;;27.12;81.02;100942.03;5053895;28;20123;-91
2023/09/07 11:08:14;;;;;;;13.52;4.25;;;;;;;27.45;79.55;100939.72;5053545;28;20451;-91
2023/09/07 11:10:40;;;;;;;15.82;4.57;;;;;;;27.75;76.88;100937.88;5054800;28;20052;-89
2023/09/07 11:13:09;;;;;;;12.85;4.40;;;;;;;28.16;72.57;100940.38;5055325;28;20099;-92
2023/09/07 11:15:35;;;;;;;16.45;4.45;;;;;;;28.02;73.32;100929.97;5071977;28;20054;-90
2023/09/07 11:18:07;;;;;;;13.07;4.10;;;;;;;27.84;73.65;100936.19;5038852;28;20506;-90
2023/09/07 11:20:35;;;;;;;18.70;4.85;;;;;;;27.62;74.78;100936.56;5054739;28;20475;-89